createdAt,value
2019-06-10T00:01:14.035Z,23.97
2019-06-10T00:03:44.291Z,23.98
2019-06-10T00:06:14.553Z,23.96
2019-06-10T00:08:44.822Z,23.94
2019-06-10T00:11:15.097Z,23.89
2019-06-10T00:13:45.351Z,23.88
2019-06-10T00:16:15.607Z,23.89
2019-06-10T00:18:45.965Z,23.85
2019-06-10T00:21:16.337Z,23.83
2019-06-10T00:23:46.603Z,23.86
2019-06-10T00:26:16.867Z,23.86
2019-06-10T00:28:47.112Z,23.84
2019-06-10T00:31:17.379Z,23.84
2019-06-10T00:33:47.630Z,23.82
2019-06-10T00:36:17.896Z,23.87
2019-06-10T00:38:48.151Z,23.89
2019-06-10T00:41:18.419Z,23.91
2019-06-10T00:43:48.674Z,23.93
2019-06-10T00:46:21.075Z,23.95
2019-06-10T00:48:51.266Z,23.92
2019-06-10T00:51:21.540Z,23.92
2019-06-10T00:53:51.838Z,23.94
2019-06-10T00:56:22.119Z,23.93
2019-06-10T00:58:52.378Z,23.91
2019-06-10T01:01:22.658Z,23.90
2019-06-10T01:03:52.925Z,23.89
2019-06-10T01:06:23.235Z,23.87
2019-06-10T01:08:53.558Z,23.88
2019-06-10T01:11:27.192Z,23.88
2019-06-10T01:13:55.867Z,23.84
2019-06-10T01:16:26.146Z,23.83
2019-06-10T01:18:56.424Z,23.81
2019-06-10T01:21:26.700Z,23.80
2019-06-10T01:23:57.020Z,23.82
2019-06-10T01:26:27.274Z,23.85
2019-06-10T01:28:57.544Z,23.87
2019-06-10T01:31:27.793Z,23.87
2019-06-10T01:33:58.058Z,23.84
2019-06-10T01:36:28.329Z,23.80
2019-06-10T01:38:58.590Z,23.78
2019-06-10T01:41:30.589Z,23.82
2019-06-10T01:44:01.788Z,23.82
2019-06-10T01:46:32.144Z,23.87
2019-06-10T01:49:02.414Z,23.87
2019-06-10T01:51:32.707Z,23.81
2019-06-10T01:54:02.957Z,23.76
2019-06-10T01:56:33.234Z,23.70
2019-06-10T01:59:03.498Z,23.67
2019-06-10T02:01:41.393Z,23.67
2019-06-10T02:04:14.909Z,23.66
2019-06-10T02:06:43.704Z,23.58
2019-06-10T02:09:15.530Z,23.53
2019-06-10T02:11:46.506Z,23.52
2019-06-10T02:14:19.044Z,23.52
2019-06-10T02:16:50.675Z,23.48
2019-06-10T02:19:22.980Z,23.45
2019-06-10T02:21:53.095Z,23.41
2019-06-10T02:24:23.615Z,23.37
2019-06-10T02:26:54.008Z,23.28
2019-06-10T02:29:24.290Z,23.19
2019-06-10T02:31:54.559Z,23.11
2019-06-10T02:34:27.340Z,23.03
2019-06-10T02:36:56.969Z,22.90
2019-06-10T02:39:33.726Z,22.88
2019-06-10T02:42:04.201Z,22.90
2019-06-10T02:44:37.614Z,22.90
2019-06-10T02:47:05.647Z,22.93
2019-06-10T02:49:52.627Z,22.89
2019-06-10T02:52:23.156Z,22.89
2019-06-10T02:54:53.432Z,22.89
2019-06-10T02:57:31.861Z,22.84
2019-06-10T02:59:56.000Z,22.79
2019-06-10T03:02:30.091Z,22.84
2019-06-10T03:04:58.279Z,22.89
2019-06-10T03:07:31.482Z,22.94
2019-06-10T03:10:04.374Z,23.03
2019-06-10T03:12:33.135Z,23.03
2019-06-10T03:15:04.208Z,23.08
2019-06-10T03:17:34.493Z,23.03
2019-06-10T03:20:06.084Z,23.01
2019-06-10T03:22:36.322Z,22.99
2019-06-10T03:25:08.050Z,22.99
2019-06-10T03:27:38.307Z,23.03
2019-06-10T03:30:15.278Z,23.08
2019-06-10T03:32:46.469Z,23.14
2019-06-10T03:35:13.665Z,23.19
2019-06-10T03:37:43.942Z,23.20
2019-06-10T03:40:14.702Z,23.26
2019-06-10T03:42:44.979Z,23.29
2019-06-10T03:45:17.425Z,23.21
2019-06-10T03:47:47.809Z,23.14
2019-06-10T03:50:19.216Z,23.09
2019-06-10T03:52:49.631Z,23.12
2019-06-10T03:55:22.983Z,23.14
2019-06-10T03:57:52.652Z,23.17
2019-06-10T04:00:25.430Z,23.20
2019-06-10T04:02:55.414Z,23.15
2019-06-10T04:05:27.004Z,23.05
2019-06-10T04:07:57.708Z,23.07
2019-06-10T04:10:29.535Z,23.13
2019-06-10T04:13:02.456Z,23.19
2019-06-10T04:15:32.570Z,23.24
2019-06-10T04:18:03.957Z,23.27
2019-06-10T04:20:34.586Z,23.25
2019-06-10T04:23:04.876Z,23.24
2019-06-10T04:25:36.623Z,23.23
2019-06-10T04:28:06.918Z,23.19
2019-06-10T04:30:37.182Z,23.28
2019-06-10T04:33:07.465Z,23.17
2019-06-10T04:35:37.745Z,23.24
2019-06-10T04:38:08.027Z,23.32
2019-06-10T04:40:38.278Z,23.40
2019-06-10T04:43:08.637Z,23.44
2019-06-10T04:45:38.911Z,23.55
2019-06-10T04:48:09.174Z,23.59
2019-06-10T04:50:45.567Z,23.53
2019-06-10T04:53:12.937Z,23.52
2019-06-10T04:55:43.335Z,23.52
2019-06-10T04:58:13.589Z,23.47
2019-06-10T05:00:43.935Z,23.58
2019-06-10T05:03:14.224Z,23.70
2019-06-10T05:05:44.494Z,23.81
2019-06-10T05:08:14.787Z,23.96
2019-06-10T05:10:45.119Z,24.11
2019-06-10T05:13:15.365Z,24.20
2019-06-10T05:15:45.840Z,24.24
2019-06-10T05:18:16.118Z,24.37
2019-06-10T05:20:54.909Z,24.57
2019-06-10T05:23:19.567Z,24.68
2019-06-10T05:25:52.273Z,24.88
2019-06-10T05:28:23.900Z,25.16
2019-06-10T05:30:53.966Z,25.18
2019-06-10T05:33:25.994Z,25.03
2019-06-10T05:35:56.236Z,24.88
2019-06-10T05:38:27.545Z,24.89
2019-06-10T05:40:58.485Z,24.98
2019-06-10T05:43:29.684Z,24.97
2019-06-10T05:46:02.591Z,24.89
2019-06-10T05:48:33.598Z,24.78
2019-06-10T05:51:06.752Z,24.78
2019-06-10T05:53:36.094Z,24.97
2019-06-10T05:56:06.397Z,25.25
2019-06-10T05:58:43.990Z,25.51
2019-06-10T06:01:14.242Z,25.56
2019-06-10T06:03:44.633Z,25.64
2019-06-10T06:06:15.004Z,25.80
2019-06-10T06:08:45.413Z,25.93
2019-06-10T06:11:15.667Z,26.18
2019-06-10T06:13:45.928Z,26.33
2019-06-10T06:16:16.203Z,26.38
2019-06-10T06:18:46.637Z,26.33
2019-06-10T06:21:25.756Z,26.16
2019-06-10T06:23:48.912Z,25.97
2019-06-10T06:26:19.198Z,25.80
2019-06-10T06:28:49.556Z,25.58
2019-06-10T06:31:20.004Z,25.43
2019-06-10T06:33:52.771Z,25.37
2019-06-10T06:36:22.813Z,25.43
2019-06-10T06:38:53.362Z,25.65
2019-06-10T06:41:23.759Z,25.67
2019-06-10T06:43:54.073Z,25.60
2019-06-10T06:46:24.346Z,25.59
2019-06-10T06:48:54.597Z,25.61
2019-06-10T06:51:35.941Z,25.60
2019-06-10T06:53:56.899Z,25.58
2019-06-10T06:56:27.183Z,25.52
2019-06-10T06:58:57.468Z,25.64
2019-06-10T07:01:27.934Z,25.98
2019-06-10T07:03:58.169Z,26.14
2019-06-10T07:06:30.459Z,26.15
2019-06-10T07:09:07.748Z,26.36
2019-06-10T07:11:39.006Z,26.52
2019-06-10T07:14:12.751Z,26.74
2019-06-10T07:16:46.003Z,26.77
2019-06-10T07:19:15.532Z,26.76
2019-06-10T07:22:05.364Z,26.91
2019-06-10T07:24:17.766Z,27.02
2019-06-10T07:26:54.075Z,27.08
2019-06-10T07:29:22.446Z,26.96
2019-06-10T07:31:53.489Z,27.14
2019-06-10T07:34:24.008Z,27.13
2019-06-10T07:36:54.301Z,27.24
2019-06-10T07:39:24.545Z,27.40
2019-06-10T07:41:54.838Z,27.51
2019-06-10T07:44:25.090Z,27.74
2019-06-10T07:46:55.387Z,27.90
2019-06-10T07:49:25.637Z,27.89
2019-06-10T07:52:09.586Z,27.88
2019-06-10T07:54:27.900Z,27.97
2019-06-10T07:56:58.167Z,27.95
2019-06-10T07:59:28.448Z,28.03
2019-06-10T08:01:58.706Z,28.14
2019-06-10T08:04:28.976Z,28.33
2019-06-10T08:06:59.239Z,28.37
2019-06-10T08:09:29.498Z,28.23
2019-06-10T08:12:03.420Z,28.12
2019-06-10T08:14:33.006Z,28.33
2019-06-10T08:17:03.358Z,28.63
2019-06-10T08:19:38.263Z,28.87
2019-06-10T08:22:05.714Z,28.87
2019-06-10T08:24:37.323Z,29.08
2019-06-10T08:27:07.805Z,28.82
2019-06-10T08:29:38.635Z,29.09
2019-06-10T08:32:09.022Z,29.13
2019-06-10T08:34:40.849Z,29.29
2019-06-10T08:37:13.641Z,29.31
2019-06-10T08:39:45.653Z,29.48
2019-06-10T08:42:15.344Z,29.81
2019-06-10T08:44:48.415Z,30.21
2019-06-10T08:47:17.679Z,30.57
2019-06-10T08:49:52.932Z,31.00
2019-06-10T08:52:23.738Z,31.54
2019-06-10T08:54:54.680Z,32.27
2019-06-10T08:57:25.066Z,32.84
2019-06-10T08:59:55.392Z,32.38
2019-06-10T09:02:25.702Z,31.78
2019-06-10T09:04:56.011Z,31.86
2019-06-10T09:07:26.267Z,32.63
2019-06-10T09:09:56.566Z,33.30
2019-06-10T09:12:32.901Z,33.65
2019-06-10T09:14:58.837Z,33.91
2019-06-10T09:17:29.139Z,33.66
2019-06-10T09:19:59.446Z,32.92
2019-06-10T09:22:29.682Z,32.35
2019-06-10T09:24:59.957Z,32.42
2019-06-10T09:27:32.681Z,32.53
2019-06-10T09:30:03.035Z,32.47
2019-06-10T09:32:33.496Z,32.21
2019-06-10T09:35:04.951Z,32.14
2019-06-10T09:37:35.405Z,32.23
2019-06-10T09:40:12.202Z,32.14
2019-06-10T09:42:46.274Z,31.80
2019-06-10T09:45:14.771Z,32.09
2019-06-10T09:47:48.513Z,32.38
2019-06-10T09:50:22.639Z,32.42
2019-06-10T09:52:56.987Z,32.07
2019-06-10T09:55:29.095Z,31.63
2019-06-10T09:58:00.023Z,31.44
2019-06-10T10:00:56.700Z,31.64
2019-06-10T10:03:24.233Z,32.21
2019-06-10T10:06:08.107Z,32.49
2019-06-10T10:08:26.511Z,32.64
2019-06-10T10:10:58.905Z,32.66
2019-06-10T10:13:28.836Z,32.65
2019-06-10T10:15:59.126Z,32.65
2019-06-10T10:18:29.398Z,32.50
2019-06-10T10:21:01.246Z,32.70
2019-06-10T10:23:49.135Z,33.67
2019-06-10T10:26:03.774Z,35.21
2019-06-10T10:28:34.042Z,36.52
2019-06-10T10:31:04.763Z,37.58
2019-06-10T10:33:35.225Z,38.81
2019-06-10T10:36:05.567Z,38.68
2019-06-10T10:38:35.836Z,37.90
2019-06-10T10:41:06.610Z,37.51
2019-06-10T10:43:37.970Z,37.34
2019-06-10T10:46:09.268Z,37.47
2019-06-10T10:48:39.739Z,36.77
2019-06-10T10:51:12.622Z,35.53
2019-06-10T10:53:46.547Z,35.18
2019-06-10T10:56:14.043Z,34.87
2019-06-10T10:58:45.894Z,35.17
2019-06-10T11:01:16.503Z,35.30
2019-06-10T11:03:48.238Z,34.87
2019-06-10T11:06:18.948Z,34.00
2019-06-10T11:08:49.975Z,33.78
2019-06-10T11:11:23.008Z,33.96
2019-06-10T11:13:56.879Z,33.85
2019-06-10T11:16:25.943Z,33.98
2019-06-10T11:18:57.693Z,34.85
2019-06-10T11:21:28.269Z,35.27
2019-06-10T11:24:01.404Z,34.82
2019-06-10T11:26:32.866Z,34.19
2019-06-10T11:29:03.097Z,33.92
2019-06-10T11:31:33.447Z,33.62
2019-06-10T11:34:03.696Z,33.12
2019-06-10T11:36:33.948Z,32.92
2019-06-10T11:39:05.711Z,32.91
2019-06-10T11:41:35.992Z,32.82
2019-06-10T11:44:06.682Z,33.47
2019-06-10T11:46:36.960Z,35.52
2019-06-10T11:49:07.216Z,39.44
2019-06-10T11:51:37.485Z,43.62
2019-06-10T11:54:07.737Z,45.16
2019-06-10T11:56:38.032Z,46.21
2019-06-10T11:59:10.113Z,46.01
2019-06-10T12:01:42.449Z,46.93
2019-06-10T12:04:12.843Z,46.93
2019-06-10T12:06:43.133Z,44.88
2019-06-10T12:09:13.856Z,42.51
2019-06-10T12:11:44.361Z,41.20
2019-06-10T12:14:15.005Z,40.16
2019-06-10T12:19:17.475Z,39.27
2019-06-10T12:21:47.762Z,39.16
2019-06-10T12:24:18.019Z,38.69
2019-06-10T12:26:48.291Z,38.46
2019-06-10T12:29:18.549Z,38.11
2019-06-10T12:31:48.846Z,37.09
2019-06-10T12:34:19.586Z,36.25
2019-06-10T12:36:50.491Z,35.84
2019-06-10T12:39:22.869Z,35.86
2019-06-10T12:41:57.570Z,35.76
2019-06-10T12:44:25.400Z,35.76
2019-06-10T12:47:02.106Z,36.40
2019-06-10T12:49:32.033Z,38.07
2019-06-10T12:52:07.025Z,40.37
2019-06-10T12:54:34.352Z,41.14
2019-06-10T12:57:06.842Z,41.75
2019-06-10T12:59:37.146Z,42.65
2019-06-10T13:02:18.940Z,43.12
2019-06-10T13:04:42.936Z,43.84
2019-06-10T13:07:15.411Z,44.85
2019-06-10T13:09:46.687Z,45.78
2019-06-10T13:12:16.951Z,45.27
2019-06-10T13:14:47.209Z,44.99
2019-06-10T13:17:17.466Z,43.12
2019-06-10T13:19:47.733Z,43.73
2019-06-10T13:22:18.019Z,43.75
2019-06-10T13:24:48.284Z,41.92
2019-06-10T13:27:18.545Z,42.67
2019-06-10T13:29:48.521Z,45.66
2019-06-10T13:32:18.506Z,48.59
2019-06-10T13:34:48.454Z,50.41
2019-06-10T13:37:18.426Z,50.61
2019-06-10T13:39:48.415Z,49.22
2019-06-10T13:42:18.409Z,48.06
2019-06-10T13:44:48.375Z,48.04
2019-06-10T13:47:18.339Z,49.24
2019-06-10T13:49:53.116Z,50.95
2019-06-10T13:52:23.378Z,49.13
2019-06-10T13:54:53.464Z,46.61
2019-06-10T13:57:23.454Z,44.62
2019-06-10T13:59:53.414Z,42.91
2019-06-10T14:02:24.896Z,42.13
2019-06-10T14:04:55.662Z,43.93
2019-06-10T14:07:26.181Z,47.30
2019-06-10T14:09:56.265Z,50.25
2019-06-10T14:12:26.328Z,49.37
2019-06-10T14:14:56.382Z,47.30
2019-06-10T14:17:26.353Z,45.44
2019-06-10T14:19:56.318Z,44.19
2019-06-10T14:22:26.587Z,43.03
2019-06-10T14:24:56.859Z,42.87
2019-06-10T14:27:26.836Z,45.82
2019-06-10T14:29:57.097Z,46.95
2019-06-10T14:32:27.092Z,46.08
2019-06-10T14:34:57.064Z,46.40
2019-06-10T14:37:36.166Z,46.77
2019-06-10T14:39:58.748Z,47.54
2019-06-10T14:42:28.777Z,47.16
2019-06-10T14:44:59.623Z,47.31
2019-06-10T14:47:29.575Z,47.72
2019-06-10T14:49:59.546Z,49.20
2019-06-10T14:52:31.968Z,49.74
2019-06-10T14:55:02.653Z,50.29
2019-06-10T14:57:33.472Z,50.47
2019-06-10T15:00:03.617Z,49.58
2019-06-10T15:02:33.648Z,48.80
2019-06-10T15:05:05.157Z,48.51
2019-06-10T15:07:35.191Z,48.37
2019-06-10T15:10:07.876Z,47.74
2019-06-10T15:12:37.833Z,47.71
2019-06-10T15:15:10.232Z,47.80
2019-06-10T15:17:42.902Z,47.94
2019-06-10T15:20:13.688Z,48.54
2019-06-10T15:22:43.677Z,48.75
2019-06-10T15:25:15.913Z,47.32
2019-06-10T15:27:45.850Z,44.76
2019-06-10T15:30:25.878Z,42.80
2019-06-10T15:32:48.386Z,41.70
2019-06-10T15:35:21.908Z,41.47
2019-06-10T15:37:52.817Z,40.80
2019-06-10T15:40:23.200Z,40.90
2019-06-10T15:42:53.528Z,41.59
2019-06-10T15:45:24.124Z,41.55
2019-06-10T15:47:54.400Z,41.52
2019-06-10T15:50:27.477Z,40.96
2019-06-10T15:52:56.642Z,39.96
2019-06-10T15:55:49.179Z,39.37
2019-06-10T15:57:58.981Z,38.81
2019-06-10T16:00:29.604Z,38.42
2019-06-10T16:03:02.345Z,37.95
2019-06-10T16:05:32.285Z,37.60
2019-06-10T16:08:02.653Z,37.23
2019-06-10T16:10:32.919Z,36.97
2019-06-10T16:13:03.510Z,36.55
2019-06-10T16:15:33.887Z,36.30
2019-06-10T16:18:04.141Z,36.13
2019-06-10T16:20:34.448Z,35.85
2019-06-10T16:23:04.716Z,35.46
2019-06-10T16:25:35.059Z,35.15
2019-06-10T16:28:05.310Z,34.83
2019-06-10T16:30:35.663Z,34.32
2019-06-10T16:33:05.941Z,33.72
2019-06-10T16:35:36.194Z,33.18
2019-06-10T16:38:06.450Z,32.99
2019-06-10T16:40:36.712Z,32.83
2019-06-10T16:43:06.966Z,32.66
2019-06-10T16:45:37.263Z,32.66
2019-06-10T16:48:07.488Z,32.84
2019-06-10T16:50:37.797Z,33.01
2019-06-10T16:53:08.040Z,33.09
2019-06-10T16:55:38.294Z,33.12
2019-06-10T16:58:08.650Z,32.94
2019-06-10T17:00:38.902Z,32.73
2019-06-10T17:03:09.322Z,32.52
2019-06-10T17:05:39.571Z,32.42
2019-06-10T17:08:12.527Z,32.34
2019-06-10T17:10:43.609Z,32.42
2019-06-10T17:13:15.635Z,32.50
2019-06-10T17:15:45.891Z,32.49
2019-06-10T17:18:16.152Z,32.31
2019-06-10T17:20:46.478Z,32.07
2019-06-10T17:23:24.685Z,31.87
2019-06-10T17:25:56.622Z,31.76
2019-06-10T17:28:31.756Z,31.77
2019-06-10T17:31:00.170Z,31.79
2019-06-10T17:33:35.121Z,31.74
2019-06-10T17:36:03.363Z,31.79
2019-06-10T17:38:34.629Z,31.82
2019-06-10T17:41:04.877Z,31.83
2019-06-10T17:43:35.123Z,31.88
2019-06-10T17:46:05.927Z,31.94
2019-06-10T17:48:36.179Z,31.98
2019-06-10T17:51:06.498Z,31.99
2019-06-10T17:53:36.812Z,31.98
2019-06-10T17:56:07.073Z,31.94
2019-06-10T17:58:50.223Z,31.77
2019-06-10T18:01:09.321Z,31.69
2019-06-10T18:03:40.101Z,31.69
2019-06-10T18:06:13.125Z,31.66
2019-06-10T18:08:42.471Z,31.65
2019-06-10T18:11:13.019Z,31.66
2019-06-10T18:13:43.359Z,31.65
2019-06-10T18:16:14.734Z,31.61
2019-06-10T18:18:44.990Z,31.55
2019-06-10T18:21:15.239Z,31.48
2019-06-10T18:23:45.542Z,31.40
2019-06-10T18:26:15.796Z,31.35
2019-06-10T18:29:00.245Z,31.30
2019-06-10T18:31:18.751Z,31.22
2019-06-10T18:33:49.290Z,31.16
2019-06-10T18:36:19.535Z,31.12
2019-06-10T18:38:52.516Z,31.08
2019-06-10T18:41:22.327Z,30.98
2019-06-10T18:43:52.820Z,30.87
2019-06-10T18:46:23.277Z,30.75
2019-06-10T18:48:53.792Z,30.66
2019-06-10T18:51:24.140Z,30.60
2019-06-10T18:53:54.391Z,30.56
2019-06-10T18:56:24.672Z,30.42
2019-06-10T18:58:54.907Z,30.28
2019-06-10T19:01:25.147Z,29.99
2019-06-10T19:03:55.437Z,29.60
2019-06-10T19:06:25.765Z,29.18
